Wellington, Kentucky
Current Conditions -  °F | °C
As of 9:50 AM on Monday 24 Nov 2014 (Local Time) from KSYM Reporting Station
Broken Clouds Broken Clouds  
Wind Chill: 63°   Ceiling: 4400
Heat Index: 63°   Visibility: 10mi
Dew Point: 48°   Wind: 23mph
Humidity: 59%   Direction: 230°SW
Pressure: 29.51"   Gusts: 45mph
Location:  37.98°N, 83.47°W
Report Text: KSYM 241450Z AUTO 23020G39KT 10SM BKN044 BKN050 BKN065 17/09 A2951 RMK AO2
Loading
Personal Weather Stations






























Interactive Weather Map New forecast layout! Learn more

10-Day Weather Forecast

Advertisements
Track Severe Weather on mobile